Time;durP1;ratioP1;P1;durP2;ratioP2;P2;SDS_P1;SDS_P2;PMS_P1;PMS_P2;Temp;Humidity;BMP_temperature;BMP_pressure;BME280_temperature;BME280_humidity;BME280_pressure;Samples;Min_cycle;Max_cycle;Signal;HPM_P1;HPM_P2
2023/02/19 00:02:48;;;;;;;1.45;0.32;;;;;;;14.15;100.00;100227.41;7398888;19;20430;-60
2023/02/19 00:05:30;;;;;;;0.10;0.10;;;;;;;13.16;100.00;100232.38;7399650;19;20011;-60
2023/02/19 00:08:11;;;;;;;4.43;0.40;;;;;;;13.33;100.00;100230.63;7398042;19;20014;-60
2023/02/19 00:11:04;;;;;;;1.55;0.52;;;;;;;12.88;100.00;100234.69;7397513;19;20022;-60
2023/02/19 00:14:06;;;;;;;0.10;0.10;;;;;;;12.94;100.00;100243.94;7397516;19;20014;-60
2023/02/19 00:16:43;;;;;;;0.63;0.30;;;;;;;12.79;100.00;100246.75;7398438;19;20078;-60
2023/02/19 00:19:26;;;;;;;0.13;0.10;;;;;;;12.51;100.00;100244.69;7395959;19;20470;-61
2023/02/19 00:22:11;;;;;;;0.20;0.20;;;;;;;12.57;100.00;100265.88;7398946;19;20354;-60
2023/02/19 00:24:42;;;;;;;0.20;0.10;;;;;;;12.50;100.00;100265.47;7396998;19;20348;-60
2023/02/19 00:27:20;;;;;;;0.32;0.25;;;;;;;12.58;100.00;100273.00;7398413;19;20606;-60
2023/02/19 00:29:51;;;;;;;1.67;0.45;;;;;;;12.54;100.00;100266.84;7396773;19;20347;-60
2023/02/19 00:32:37;;;;;;;0.57;0.57;;;;;;;13.72;100.00;100275.97;7401443;19;20466;-60
2023/02/19 00:35:40;;;;;;;0.50;0.32;;;;;;;13.11;100.00;100269.41;7397434;19;20047;-59
2023/02/19 00:38:12;;;;;;;;;;;;;;;14.29;100.00;100271.44;7398000;19;20420;-60
2023/02/19 00:41:29;;;;;;;0.20;0.20;;;;;;;15.69;100.00;100261.03;7397976;19;20284;-60
2023/02/19 00:44:34;;;;;;;0.10;0.10;;;;;;;15.50;100.00;100273.94;7398067;19;20022;-56
2023/02/19 00:47:36;;;;;;;0.10;0.10;;;;;;;15.49;100.00;100297.63;7398108;19;20090;-58
2023/02/19 00:50:17;;;;;;;0.60;0.28;;;;;;;15.42;100.00;100304.44;7397677;19;20464;-60
2023/02/19 00:52:46;;;;;;;0.45;0.20;;;;;;;15.17;100.00;100286.41;7401337;19;20094;-60
2023/02/19 00:55:19;;;;;;;0.20;0.15;;;;;;;15.19;100.00;100299.91;7399210;19;20018;-60
2023/02/19 00:57:52;;;;;;;0.20;0.20;;;;;;;19.96;100.00;100297.72;7398433;19;20623;-60
2023/02/19 01:00:40;;;;;;;0.10;0.10;;;;;;;15.84;100.00;100289.72;7397035;19;20010;-60
2023/02/19 01:03:23;;;;;;;1.20;0.50;;;;;;;15.57;100.00;100281.91;7398121;19;20018;-60
2023/02/19 01:05:53;;;;;;;0.10;0.10;;;;;;;15.19;100.00;100297.88;7396430;19;20458;-60
2023/02/19 01:08:44;;;;;;;0.20;0.20;;;;;;;14.88;100.00;100266.97;7398453;19;20027;-60
2023/02/19 01:11:22;;;;;;;14.93;0.57;;;;;;;14.86;100.00;100275.13;7397214;19;20013;-60
2023/02/19 01:14:15;;;;;;;0.10;0.10;;;;;;;16.54;100.00;100275.78;7396769;19;20017;-56
2023/02/19 01:16:44;;;;;;;0.10;0.10;;;;;;;15.45;100.00;100288.69;7396192;19;20010;-60
2023/02/19 01:19:20;;;;;;;0.35;0.35;;;;;;;21.69;100.00;100261.56;7396577;19;20010;-60
2023/02/19 01:22:03;;;;;;;1.45;0.50;;;;;;;16.35;100.00;100286.66;7396675;19;20032;-60
2023/02/19 01:24:33;;;;;;;0.95;0.93;;;;;;;16.77;100.00;100290.66;7396902;19;20014;-60
2023/02/19 01:27:07;;;;;;;0.80;0.63;;;;;;;23.55;79.88;100287.78;7395474;19;20368;-60
2023/02/19 01:29:46;;;;;;;1.88;0.95;;;;;;;23.84;79.70;100283.66;7395603;19;20022;-60
2023/02/19 01:32:42;;;;;;;1.52;0.75;;;;;;;24.51;64.34;100290.34;7396524;19;20015;-60
2023/02/19 01:36:06;;;;;;;0.98;0.60;;;;;;;23.35;79.90;100309.22;7395343;19;20382;-57
2023/02/19 01:42:32;;;;;;;0.40;0.40;;;;;;;24.65;64.26;100334.47;7395704;19;20041;-60
2023/02/19 01:45:52;;;;;;;1.58;0.75;;;;;;;20.17;87.87;100330.63;7397642;19;20487;-60
2023/02/19 01:48:46;;;;;;;4.22;0.98;;;;;;;23.37;63.58;100322.84;7395636;19;20046;-60
2023/02/19 01:51:37;;;;;;;1.98;1.00;;;;;;;25.17;63.87;100328.25;7393261;19;20077;-63
2023/02/19 01:54:05;;;;;;;4.95;1.30;;;;;;;26.77;55.07;100318.31;7393238;19;20039;-63
2023/02/19 01:56:35;;;;;;;1.08;0.68;;;;;;;26.82;52.83;100332.41;7391773;19;20015;-64
2023/02/19 01:59:01;;;;;;;1.00;0.85;;;;;;;26.82;52.25;100328.78;7391877;19;20035;-64
2023/02/19 02:01:27;;;;;;;1.83;0.85;;;;;;;26.41;51.58;100330.03;7394373;19;20024;-63
2023/02/19 02:03:54;;;;;;;2.47;0.50;;;;;;;26.18;51.17;100332.91;7394474;19;20074;-64
2023/02/19 02:06:23;;;;;;;1.73;1.10;;;;;;;25.70;52.58;100345.50;7393175;19;20335;-63
2023/02/19 02:11:51;;;;;;;1.52;1.23;;;;;;;26.67;49.63;100352.44;7391813;19;20010;-64
2023/02/19 02:14:21;;;;;;;0.90;0.75;;;;;;;25.76;50.84;100356.69;7393707;19;20015;-63
2023/02/19 02:17:11;;;;;;;4.57;0.77;;;;;;;27.02;48.80;100368.53;7392400;19;20345;-64
2023/02/19 02:20:05;;;;;;;2.72;0.85;;;;;;;27.25;47.77;100379.09;7391996;19;20015;-64
2023/02/19 02:22:51;;;;;;;0.75;0.73;;;;;;;25.40;51.14;100385.34;7396478;19;20014;-64
2023/02/19 02:25:30;;;;;;;0.43;0.35;;;;;;;26.69;48.53;100386.91;7393242;19;20350;-64
2023/02/19 02:28:24;;;;;;;7.47;1.20;;;;;;;25.17;51.19;100407.28;7389568;19;20017;-63
2023/02/19 02:31:15;;;;;;;0.70;0.52;;;;;;;26.97;47.89;100406.66;7389604;19;20025;-64
2023/02/19 02:34:17;;;;;;;0.75;0.32;;;;;;;27.31;46.75;100422.56;7386385;19;20029;-63
2023/02/19 02:36:48;;;;;;;1.73;1.00;;;;;;;27.17;46.29;100409.84;7387932;19;20010;-64
2023/02/19 02:39:19;;;;;;;0.50;0.40;;;;;;;26.72;46.46;100434.34;7386898;19;20010;-63
2023/02/19 02:42:26;;;;;;;;;;;;;;;26.94;45.29;100429.94;7397031;19;20010;-64
2023/02/19 02:45:33;;;;;;;0.65;0.32;;;;;;;24.43;49.28;100440.50;7395042;19;19914;-63
2023/02/19 02:47:40;;;;;;;0.35;0.30;;;;;;;25.30;46.93;100442.16;7395068;19;20011;-63
2023/02/19 02:50:10;;;;;;;0.15;0.15;;;;;;;26.21;44.74;100445.25;7394011;19;20458;-64
2023/02/19 02:55:28;;;;;;;0.40;0.40;;;;;;;26.07;43.78;100446.75;7395972;19;20025;-64
2023/02/19 02:57:55;;;;;;;0.35;0.35;;;;;;;26.14;43.54;100443.16;7396076;19;20505;-64
2023/02/19 03:00:24;;;;;;;0.10;0.10;;;;;;;26.05;42.68;100444.44;7393537;19;20074;-63
2023/02/19 03:02:52;;;;;;;0.65;0.57;;;;;;;25.77;42.63;100458.13;7398228;19;20013;-63
2023/02/19 03:08:19;;;;;;;0.30;0.30;;;;;;;26.16;41.97;100486.19;7394942;19;20014;-63
2023/02/19 03:19:17;;;;;;;0.73;0.70;;;;;;;26.10;41.83;100491.28;7393392;19;20015;-63
2023/02/19 03:19:34;;;;;;;0.25;0.20;;;;;;;25.11;42.42;100515.81;7390958;19;20415;-63
2023/02/19 03:22:19;;;;;;;0.10;0.10;;;;;;;24.15;43.63;100525.84;7396912;19;20082;-63
2023/02/19 03:27:47;;;;;;;0.15;0.15;;;;;;;25.93;41.59;100536.72;7393654;19;20011;-63
2023/02/19 03:30:19;;;;;;;2.17;0.50;;;;;;;25.93;40.95;100540.34;7391618;19;20097;-63
2023/02/19 03:32:58;;;;;;;0.30;0.30;;;;;;;25.91;40.48;100554.41;7395774;19;20459;-63
2023/02/19 03:35:29;;;;;;;0.22;0.10;;;;;;;30.46;35.34;100559.84;7394638;19;20356;-63
2023/02/19 03:38:12;;;;;;;0.10;0.10;;;;;;;25.38;39.16;100559.84;7394337;19;20022;-63
2023/02/19 03:41:07;;;;;;;0.10;0.10;;;;;;;25.04;40.21;100553.56;7392926;19;20022;-63
2023/02/19 03:43:45;;;;;;;0.40;0.40;;;;;;;25.23;40.45;100556.19;7392785;19;20018;-63
2023/02/19 03:46:23;;;;;;;0.30;0.10;;;;;;;27.77;36.71;100546.94;7392255;19;20338;-63
2023/02/19 03:48:57;;;;;;;0.10;0.10;;;;;;;27.56;38.30;100552.94;7391010;19;20031;-57
2023/02/19 03:51:40;;;;;;;0.20;0.10;;;;;;;26.21;37.97;100568.81;7392734;19;20029;-57
2023/02/19 03:54:29;;;;;;;0.30;0.13;;;;;;;25.42;39.18;100571.72;7392982;19;20036;-57
2023/02/19 03:57:04;;;;;;;0.10;0.10;;;;;;;27.94;36.67;100575.69;7392995;19;20018;-57
2023/02/19 03:59:42;;;;;;;0.38;0.30;;;;;;;32.17;31.98;100564.31;7390212;19;20041;-57
2023/02/19 04:02:26;;;;;;;0.10;0.10;;;;;;;33.81;29.49;100556.97;7394033;19;20571;-57
2023/02/19 04:05:18;;;;;;;0.13;0.13;;;;;;;30.50;31.63;100563.03;7391293;19;20019;-57
2023/02/19 04:07:48;;;;;;;0.38;0.22;;;;;;;32.59;29.64;100561.63;7394044;19;20053;-57
2023/02/19 04:10:19;;;;;;;0.40;0.13;;;;;;;29.31;32.15;100564.75;7392028;19;20011;-57
2023/02/19 04:12:57;;;;;;;0.10;0.10;;;;;;;32.36;29.65;100558.47;7395137;19;20048;-56
2023/02/19 04:15:29;;;;;;;0.25;0.25;;;;;;;27.15;33.97;100564.84;7392703;19;20019;-56
2023/02/19 04:17:58;;;;;;;0.10;0.10;;;;;;;31.21;30.47;100570.06;7391945;19;20011;-57
2023/02/19 04:20:28;;;;;;;0.20;0.20;;;;;;;32.14;29.73;100582.81;7393663;19;20015;-57
2023/02/19 04:22:56;;;;;;;0.10;0.10;;;;;;;32.43;29.25;100586.38;7402044;19;20022;-57
2023/02/19 04:25:25;;;;;;;0.10;0.10;;;;;;;32.92;28.59;100586.97;7396377;19;20074;-56
2023/02/19 04:27:51;;;;;;;2.72;1.55;;;;;;;32.76;28.32;100590.25;7395610;19;20014;-57
2023/02/19 04:30:18;;;;;;;2.17;0.32;;;;;;;32.67;28.00;100596.81;7393154;19;20150;-57
2023/02/19 04:32:44;;;;;;;0.28;0.22;;;;;;;32.73;27.76;100590.69;7396195;19;20017;-57
2023/02/19 04:35:10;;;;;;;0.80;0.40;;;;;;;33.11;27.31;100601.31;7393442;19;20014;-57
2023/02/19 04:37:36;;;;;;;0.10;0.10;;;;;;;33.22;27.34;100607.19;7390970;19;20011;-57
2023/02/19 04:40:02;;;;;;;0.30;0.30;;;;;;;33.28;27.25;100616.25;7390101;19;20019;-56
2023/02/19 04:42:29;;;;;;;10.23;0.70;;;;;;;33.13;27.18;100618.78;7391484;19;20015;-57
2023/02/19 04:44:55;;;;;;;0.10;0.10;;;;;;;32.81;27.48;100623.03;7391170;19;20013;-57
2023/02/19 04:47:21;;;;;;;0.10;0.10;;;;;;;28.00;31.00;100630.69;7392258;19;20352;-56
2023/02/19 04:49:47;;;;;;;0.30;0.20;;;;;;;26.28;33.48;100632.97;7391524;19;20340;-57
2023/02/19 04:52:13;;;;;;;0.30;0.30;;;;;;;25.93;34.31;100630.91;7392744;19;20477;-56
2023/02/19 04:54:39;;;;;;;0.35;0.32;;;;;;;25.39;35.04;100623.38;7392774;19;20078;-56
2023/02/19 04:57:06;;;;;;;0.10;0.00;;;;;;;25.32;35.47;100627.69;7392467;19;20028;-57
2023/02/19 04:59:33;;;;;;;8.43;0.43;;;;;;;25.11;35.41;100635.53;7389778;19;20010;-57
2023/02/19 05:01:59;;;;;;;0.50;0.32;;;;;;;25.24;35.85;100638.28;7393337;19;20011;-63
2023/02/19 05:04:25;;;;;;;0.20;0.20;;;;;;;25.21;36.01;100630.84;7390987;19;20025;-62
2023/02/19 05:06:51;;;;;;;0.13;0.13;;;;;;;24.88;37.05;100637.44;7391988;19;20412;-63
2023/02/19 05:09:17;;;;;;;1.35;0.35;;;;;;;24.69;37.33;100639.69;7391708;19;20445;-62
2023/02/19 05:11:44;;;;;;;1.13;0.68;;;;;;;24.83;37.29;100646.88;7393149;19;20011;-63
2023/02/19 05:14:10;;;;;;;0.30;0.30;;;;;;;24.94;37.13;100669.41;7391289;19;20015;-63
2023/02/19 05:16:36;;;;;;;2.15;0.85;;;;;;;24.77;36.98;100660.50;7390488;19;20074;-62
2023/02/19 05:19:02;;;;;;;9.45;0.50;;;;;;;24.62;37.43;100672.47;7388583;19;20015;-63
2023/02/19 05:21:28;;;;;;;0.10;0.10;;;;;;;24.54;37.64;100677.34;7392205;19;20466;-63
2023/02/19 05:23:54;;;;;;;0.10;0.10;;;;;;;24.54;37.85;100676.56;7392028;19;20022;-63
2023/02/19 05:26:22;;;;;;;0.10;0.10;;;;;;;24.28;38.64;100690.91;7390645;19;20020;-64
2023/02/19 05:28:52;;;;;;;0.10;0.10;;;;;;;25.05;37.34;100683.38;7394559;19;20037;-62
2023/02/19 05:31:20;;;;;;;0.17;0.17;;;;;;;25.25;37.38;100671.19;7390583;19;20522;-63
2023/02/19 05:33:49;;;;;;;0.17;0.17;;;;;;;24.00;38.69;100674.38;7390781;19;20014;-62
2023/02/19 05:36:17;;;;;;;0.10;0.03;;;;;;;24.83;38.13;100678.22;7390396;19;20027;-63
2023/02/19 05:38:43;;;;;;;0.10;0.10;;;;;;;25.42;37.41;100680.09;7389465;19;20473;-63
2023/02/19 05:41:16;;;;;;;0.10;0.10;;;;;;;25.71;36.80;100678.00;7391181;19;20014;-63
2023/02/19 05:43:44;;;;;;;0.40;0.30;;;;;;;25.72;36.88;100675.91;7390407;19;20029;-63
2023/02/19 05:46:13;;;;;;;0.43;0.43;;;;;;;24.38;38.04;100674.88;7390296;19;20010;-63
2023/02/19 05:48:39;;;;;;;6.43;0.73;;;;;;;26.00;36.88;100684.44;7390882;19;20013;-63
2023/02/19 05:51:16;;;;;;;0.20;0.20;;;;;;;27.40;34.84;100682.31;7391249;19;20070;-62
2023/02/19 05:53:43;;;;;;;0.70;0.38;;;;;;;27.51;34.46;100687.66;7389439;19;20066;-62
2023/02/19 05:56:31;;;;;;;4.55;0.30;;;;;;;27.36;34.79;100699.09;7390207;19;20458;-62
2023/02/19 05:58:58;;;;;;;12.13;0.43;;;;;;;26.30;35.65;100704.59;7393016;19;20019;-63
2023/02/19 06:01:27;;;;;;;0.15;0.10;;;;;;;27.00;34.97;100691.47;7390908;19;20122;-62
2023/02/19 06:03:54;;;;;;;0.10;0.10;;;;;;;26.93;34.88;100680.78;7389757;19;20006;-63
2023/02/19 06:06:21;;;;;;;0.10;0.10;;;;;;;26.67;34.75;100686.81;7389220;19;20022;-63
2023/02/19 06:08:49;;;;;;;0.22;0.22;;;;;;;26.54;34.88;100677.63;7389102;19;20033;-63
2023/02/19 06:11:16;;;;;;;0.40;0.40;;;;;;;27.28;34.54;100664.00;7389065;19;20015;-63
2023/02/19 06:13:43;;;;;;;0.10;0.10;;;;;;;27.46;34.51;100671.44;7387333;19;20015;-63
2023/02/19 06:16:09;;;;;;;1.10;0.93;;;;;;;26.50;35.09;100677.22;7388918;19;20013;-63
2023/02/19 06:18:36;;;;;;;6.95;0.50;;;;;;;26.45;35.51;100695.28;7387894;19;20007;-63
2023/02/19 06:21:04;;;;;;;0.10;0.10;;;;;;;26.01;35.77;100698.13;7387681;19;20014;-62
2023/02/19 06:23:31;;;;;;;0.52;0.45;;;;;;;26.43;35.59;100709.38;7388755;19;20408;-63
2023/02/19 06:26:16;;;;;;;0.52;0.30;;;;;;;25.61;36.20;100713.31;7389328;19;20078;-62
2023/02/19 06:28:43;;;;;;;0.50;0.50;;;;;;;25.70;36.78;100721.38;7393141;19;20019;-63
2023/02/19 06:31:10;;;;;;;1.42;0.20;;;;;;;25.53;36.84;100716.84;7388444;19;20011;-62
2023/02/19 06:33:39;;;;;;;0.80;0.68;;;;;;;25.11;37.11;100718.22;7387092;19;20025;-62
2023/02/19 06:36:07;;;;;;;0.10;0.10;;;;;;;25.18;37.25;100717.50;7388601;19;20018;-63
2023/02/19 06:38:33;;;;;;;4.03;0.98;;;;;;;25.15;37.42;100720.69;7388278;19;20047;-63
2023/02/19 06:41:04;;;;;;;0.10;0.10;;;;;;;25.20;37.19;100720.56;7388942;19;20102;-62
2023/02/19 06:43:31;;;;;;;;;;;;;;;24.94;37.21;100726.41;7389185;19;20006;-63
2023/02/19 06:45:58;;;;;;;0.10;0.10;;;;;;;25.07;37.55;100737.75;7387726;19;19911;-62
2023/02/19 06:48:26;;;;;;;1.35;0.40;;;;;;;24.80;37.63;100750.56;7387992;19;20011;-62
2023/02/19 06:50:53;;;;;;;0.10;0.10;;;;;;;24.76;38.00;100761.53;7388328;19;20465;-63
2023/02/19 06:53:19;;;;;;;0.93;0.30;;;;;;;24.72;38.13;100752.53;7388287;19;20011;-62
2023/02/19 06:56:21;;;;;;;0.15;0.15;;;;;;;24.69;37.97;100739.38;7387841;19;20029;-63
2023/02/19 06:58:47;;;;;;;0.15;0.15;;;;;;;24.99;37.93;100734.06;7391125;19;20015;-62
2023/02/19 07:01:13;;;;;;;0.85;0.43;;;;;;;25.06;37.78;100752.56;7388518;19;20357;-63
2023/02/19 07:03:39;;;;;;;0.10;0.10;;;;;;;24.89;37.83;100770.03;7387853;19;20007;-62
2023/02/19 07:06:05;;;;;;;0.35;0.35;;;;;;;24.62;37.77;100785.69;7386796;19;20492;-62
2023/02/19 07:08:32;;;;;;;0.10;0.10;;;;;;;17.61;46.92;100816.22;7387320;19;20015;-62
2023/02/19 07:10:58;;;;;;;1.05;0.25;;;;;;;18.19;50.05;100801.50;7387651;19;20442;-62
2023/02/19 07:13:25;;;;;;;0.63;0.30;;;;;;;13.59;76.42;100774.47;7388243;19;20010;-62
2023/02/19 07:15:57;;;;;;;0.40;0.40;;;;;;;24.00;46.68;100749.13;7387398;19;20019;-62
2023/02/19 07:18:24;;;;;;;0.75;0.30;;;;;;;25.73;41.67;100746.69;7384978;19;20010;-62
2023/02/19 07:20:50;;;;;;;0.10;0.10;;;;;;;26.17;40.11;100759.75;7386229;19;20497;-63
2023/02/19 07:23:16;;;;;;;0.10;0.10;;;;;;;26.02;39.65;100753.16;7386264;19;20015;-62
2023/02/19 07:25:42;;;;;;;0.25;0.25;;;;;;;25.85;39.43;100756.47;7386476;19;20031;-63
2023/02/19 07:28:08;;;;;;;0.13;0.13;;;;;;;25.93;39.07;100750.81;7396714;19;20022;-63
2023/02/19 07:30:34;;;;;;;13.88;0.73;;;;;;;25.95;38.84;100754.63;7394418;19;20011;-62
2023/02/19 07:33:01;;;;;;;0.20;0.20;;;;;;;26.25;38.36;100754.81;7398959;19;20022;-62
2023/02/19 07:35:27;;;;;;;9.05;0.40;;;;;;;26.69;37.82;100761.31;7394829;19;20021;-62
2023/02/19 07:37:53;;;;;;;0.50;0.32;;;;;;;26.53;38.13;100745.41;7393880;19;20015;-62
2023/02/19 07:40:20;;;;;;;0.20;0.20;;;;;;;26.51;38.11;100741.63;7391789;19;20383;-62
2023/02/19 07:42:46;;;;;;;4.57;0.47;;;;;;;26.44;37.76;100757.41;7395480;19;20055;-62
2023/02/19 07:45:12;;;;;;;0.10;0.10;;;;;;;25.75;38.18;100760.41;7394874;19;20015;-62
2023/02/19 07:47:38;;;;;;;0.15;0.10;;;;;;;25.12;38.76;100765.34;7394217;19;20077;-62
2023/02/19 07:50:04;;;;;;;4.88;0.80;;;;;;;25.65;38.71;100759.34;7394030;19;20038;-62
2023/02/19 07:52:32;;;;;;;0.10;0.10;;;;;;;25.02;39.39;100760.69;7397270;19;20010;-62
2023/02/19 07:54:58;;;;;;;1.70;0.85;;;;;;;25.37;38.99;100760.06;7394041;19;20034;-62
2023/02/19 07:57:27;;;;;;;1.38;0.73;;;;;;;26.59;37.82;100768.91;7400626;19;20010;-62
2023/02/19 07:59:53;;;;;;;8.40;0.30;;;;;;;27.52;36.24;100769.31;7397704;19;20006;-62
2023/02/19 08:05:05;;;;;;;0.43;0.43;;;;;;;28.74;34.72;100777.06;7393816;19;20565;-62
2023/02/19 08:07:33;;;;;;;0.30;0.25;;;;;;;29.41;33.97;100772.25;7394082;19;20066;-62
2023/02/19 08:15:29;;;;;;;0.10;0.10;;;;;;;31.97;30.75;100816.44;7393677;19;20025;-62
2023/02/19 08:17:55;;;;;;;0.10;0.10;;;;;;;32.09;30.44;100817.41;7392543;19;20375;-62
2023/02/19 08:20:21;;;;;;;6.63;0.40;;;;;;;32.37;30.09;100825.31;7390285;19;20014;-62
2023/02/19 08:22:47;;;;;;;0.20;0.20;;;;;;;32.76;29.52;100828.97;7395127;19;20102;-62
2023/02/19 08:25:14;;;;;;;1.38;0.40;;;;;;;33.03;29.13;100832.44;7392675;19;20007;-62
2023/02/19 08:27:40;;;;;;;0.95;0.50;;;;;;;33.21;28.61;100812.78;7394561;19;20033;-62
2023/02/19 08:30:07;;;;;;;0.15;0.15;;;;;;;32.57;28.93;100803.75;7391603;19;20021;-62
2023/02/19 08:32:33;;;;;;;0.30;0.30;;;;;;;33.03;28.74;100805.72;7395305;19;20010;-62
2023/02/19 08:34:59;;;;;;;3.70;0.25;;;;;;;32.67;28.91;100798.00;7391928;19;20416;-62
2023/02/19 08:37:26;;;;;;;0.32;0.20;;;;;;;32.48;28.86;100784.34;7391945;19;20100;-62
2023/02/19 08:39:52;;;;;;;0.10;0.10;;;;;;;32.59;28.80;100789.50;7389681;19;20018;-62
2023/02/19 08:42:18;;;;;;;0.20;0.20;;;;;;;32.85;28.35;100779.16;7394686;19;20047;-62
2023/02/19 08:44:44;;;;;;;0.13;0.13;;;;;;;32.69;28.18;100777.94;7392272;19;20108;-61
2023/02/19 08:47:10;;;;;;;1.40;1.08;;;;;;;32.57;28.50;100777.81;7390736;19;20024;-63
2023/02/19 08:49:37;;;;;;;1.38;0.20;;;;;;;32.43;28.27;100776.72;7391734;19;20019;-62
2023/02/19 08:52:03;;;;;;;2.83;0.45;;;;;;;32.30;28.26;100774.31;7393206;19;20567;-62
2023/02/19 08:54:29;;;;;;;0.65;0.40;;;;;;;31.20;29.38;100787.34;7391588;19;20014;-56
2023/02/19 08:56:55;;;;;;;0.10;0.10;;;;;;;31.99;29.15;100796.41;7391728;19;20018;-57
2023/02/19 08:59:22;;;;;;;1.65;0.40;;;;;;;32.21;28.84;100812.53;7387697;19;20014;-57
2023/02/19 09:01:48;;;;;;;1.27;0.30;;;;;;;31.78;29.01;100817.13;7391830;19;20021;-56
2023/02/19 09:04:14;;;;;;;2.42;1.05;;;;;;;31.27;29.67;100831.75;7396136;19;20098;-56
2023/02/19 09:06:41;;;;;;;6.22;0.77;;;;;;;31.14;29.46;100853.06;7388802;19;20019;-56
2023/02/19 09:09:07;;;;;;;0.20;0.20;;;;;;;30.83;29.54;100851.13;7390604;19;20031;-57
2023/02/19 09:11:33;;;;;;;0.10;0.10;;;;;;;19.49;42.69;100868.59;7392335;19;20033;-56
2023/02/19 09:14:01;;;;;;;0.52;0.20;;;;;;;23.65;40.11;100860.47;7390773;19;20021;-56
2023/02/19 09:16:27;;;;;;;0.43;0.25;;;;;;;19.77;45.32;100867.84;7391097;19;20041;-56
2023/02/19 09:18:53;;;;;;;0.65;0.38;;;;;;;27.46;35.34;100854.59;7388196;19;20010;-57
2023/02/19 09:21:19;;;;;;;8.88;0.47;;;;;;;22.08;41.71;100870.81;7391654;19;20009;-57
2023/02/19 09:23:45;;;;;;;2.92;0.50;;;;;;;18.08;49.21;100898.03;7391788;19;20011;-57
2023/02/19 09:26:12;;;;;;;1.08;0.93;;;;;;;21.22;51.70;100897.25;7391564;19;20018;-57
2023/02/19 09:28:40;;;;;;;0.38;0.30;;;;;;;21.56;49.08;100898.56;7392815;19;20011;-57
2023/02/19 09:31:11;;;;;;;0.80;0.47;;;;;;;17.75;54.14;100908.28;7391928;19;20089;-57
2023/02/19 09:33:45;;;;;;;0.73;0.40;;;;;;;26.25;43.82;100874.00;7391515;19;20014;-57
2023/02/19 09:36:13;;;;;;;0.40;0.28;;;;;;;28.88;37.38;100880.81;7391000;19;20018;-57
2023/02/19 09:38:39;;;;;;;4.53;1.08;;;;;;;26.82;38.71;100872.66;7388687;19;20030;-57
2023/02/19 09:41:12;;;;;;;1.55;0.93;;;;;;;26.46;38.84;100889.03;7391940;19;20010;-57
2023/02/19 09:43:38;;;;;;;0.52;0.52;;;;;;;26.63;38.41;100885.69;7390633;19;20507;-57
2023/02/19 09:46:48;;;;;;;0.85;0.28;;;;;;;26.82;38.41;100877.63;7390445;19;20014;-57
2023/02/19 09:49:37;;;;;;;1.20;0.63;;;;;;;27.10;37.10;100879.63;7384828;19;20543;-57
2023/02/19 09:52:17;;;;;;;0.90;0.32;;;;;;;27.40;36.73;100876.88;7389200;19;20078;-57
2023/02/19 09:54:44;;;;;;;5.45;1.13;;;;;;;27.05;37.47;100882.09;7388396;19;20025;-57
2023/02/19 09:57:17;;;;;;;1.58;0.65;;;;;;;27.54;37.12;100875.38;7390562;19;20010;-57
2023/02/19 09:59:50;;;;;;;1.27;0.85;;;;;;;27.45;36.53;100862.41;7388789;19;20019;-57
2023/02/19 10:02:22;;;;;;;0.95;0.73;;;;;;;27.45;36.40;100867.34;7390719;19;20040;-57
2023/02/19 10:04:53;;;;;;;0.32;0.30;;;;;;;27.71;36.28;100878.47;7389755;19;20011;-57
2023/02/19 10:07:23;;;;;;;0.70;0.13;;;;;;;27.81;36.23;100873.69;7389143;19;20014;-57
2023/02/19 10:09:59;;;;;;;0.88;0.73;;;;;;;27.91;36.07;100874.66;7388969;19;20007;-57
2023/02/19 10:12:29;;;;;;;0.40;0.30;;;;;;;27.96;35.85;100870.81;7391901;19;20010;-57
2023/02/19 10:15:16;;;;;;;0.50;0.38;;;;;;;28.12;35.69;100878.09;7388067;19;20365;-57
2023/02/19 10:17:42;;;;;;;3.22;1.08;;;;;;;28.17;35.95;100882.88;7388299;19;20023;-57
2023/02/19 10:20:14;;;;;;;1.30;0.50;;;;;;;28.19;35.77;100865.88;7387000;19;20359;-57
2023/02/19 10:22:42;;;;;;;1.10;0.15;;;;;;;28.10;35.36;100875.06;7392709;19;20538;-57
2023/02/19 10:25:14;;;;;;;0.10;0.10;;;;;;;28.17;35.86;100859.97;7389140;19;20015;-57
2023/02/19 10:27:41;;;;;;;0.45;0.45;;;;;;;28.31;35.40;100858.41;7390507;19;20087;-57
2023/02/19 10:30:19;;;;;;;0.77;0.65;;;;;;;28.31;35.34;100857.63;7388979;19;20097;-57
2023/02/19 10:33:09;;;;;;;0.65;0.20;;;;;;;28.43;35.43;100856.66;7391267;19;20018;-57
2023/02/19 10:35:49;;;;;;;0.40;0.28;;;;;;;28.34;34.83;100860.13;7387834;19;20025;-57
2023/02/19 10:38:19;;;;;;;0.30;0.30;;;;;;;29.05;34.64;100863.72;7388070;19;20006;-57
2023/02/19 10:40:46;;;;;;;0.17;0.17;;;;;;;28.78;35.17;100863.47;7387813;19;20018;-56
2023/02/19 10:43:30;;;;;;;0.20;0.20;;;;;;;28.28;34.85;100868.16;7392474;19;20045;-57
2023/02/19 10:45:58;;;;;;;1.55;0.38;;;;;;;28.03;35.15;100870.09;7388692;19;20007;-57
2023/02/19 10:48:31;;;;;;;0.20;0.20;;;;;;;28.29;34.98;100869.69;7387406;19;20364;-57
2023/02/19 10:51:07;;;;;;;5.28;0.57;;;;;;;28.50;35.01;100864.47;7386826;19;20014;-57
2023/02/19 10:53:49;;;;;;;0.95;0.30;;;;;;;28.82;34.56;100869.56;7388409;19;20010;-57
2023/02/19 10:56:26;;;;;;;0.15;0.15;;;;;;;28.83;34.19;100887.53;7387610;19;20017;-56
2023/02/19 10:58:52;;;;;;;0.55;0.55;;;;;;;28.67;34.59;100886.06;7392536;19;20078;-56
2023/02/19 11:01:19;;;;;;;3.05;0.47;;;;;;;28.62;34.57;100881.28;7391888;19;20007;-56
2023/02/19 11:04:16;;;;;;;1.90;1.23;;;;;;;28.98;34.27;100873.88;7396237;19;20011;-56
2023/02/19 11:06:43;;;;;;;12.68;2.58;;;;;;;28.96;33.88;100873.72;7394876;19;20018;-56
2023/02/19 11:09:41;;;;;;;1.33;0.52;;;;;;;31.17;31.85;100862.59;7396829;19;20018;-56
2023/02/19 11:12:09;;;;;;;4.15;1.13;;;;;;;29.55;32.98;100853.88;7396663;19;20041;-56
2023/02/19 11:14:35;;;;;;;4.47;0.55;;;;;;;29.56;33.32;100860.38;7394185;19;20361;-56
2023/02/19 11:17:04;;;;;;;0.88;0.43;;;;;;;30.10;33.07;100850.00;7394918;19;20029;-56
2023/02/19 11:19:33;;;;;;;1.58;0.75;;;;;;;32.65;31.06;100844.00;7395538;19;20010;-56
2023/02/19 11:22:00;;;;;;;5.53;0.80;;;;;;;26.69;36.98;100852.00;7399892;19;20023;-56
2023/02/19 11:24:39;;;;;;;9.73;1.20;;;;;;;29.37;34.23;100863.75;7394413;19;20011;-57
2023/02/19 11:27:16;;;;;;;4.43;1.52;;;;;;;29.72;33.40;100856.03;7398268;19;20015;-57
2023/02/19 11:29:42;;;;;;;3.72;0.75;;;;;;;29.69;33.18;100863.72;7397415;19;20074;-57
2023/02/19 11:32:24;;;;;;;0.73;0.45;;;;;;;29.73;33.22;100866.97;7400136;19;20020;-57
2023/02/19 11:34:52;;;;;;;0.38;0.25;;;;;;;29.64;33.49;100861.84;7395723;19;20466;-57
2023/02/19 11:37:20;;;;;;;2.53;0.57;;;;;;;27.67;35.30;100866.63;7396930;19;20070;-57
2023/02/19 11:39:50;;;;;;;0.60;0.52;;;;;;;28.50;34.43;100873.06;7399173;19;20027;-57
2023/02/19 11:42:34;;;;;;;0.10;0.10;;;;;;;27.32;35.46;100873.22;7401207;19;20018;-57
2023/02/19 11:45:26;;;;;;;2.00;0.57;;;;;;;22.07;40.25;100891.97;7393594;19;20011;-56
2023/02/19 11:48:01;;;;;;;0.30;0.30;;;;;;;15.27;67.98;100914.81;7393963;19;20033;-63
2023/02/19 11:50:46;;;;;;;1.52;1.08;;;;;;;13.74;99.15;100908.91;7394515;19;20010;-63
2023/02/19 11:53:20;;;;;;;6.78;0.70;;;;;;;13.10;100.00;100905.47;7394722;19;20006;-63
2023/02/19 11:56:01;;;;;;;7.28;1.23;;;;;;;12.47;100.00;100909.00;7394399;19;20021;-64
2023/02/19 11:58:39;;;;;;;1.08;0.43;;;;;;;22.93;74.14;100886.38;7396880;19;20030;-63
2023/02/19 12:01:05;;;;;;;0.98;0.60;;;;;;;27.11;44.79;100866.88;7394524;19;20457;-64
2023/02/19 12:04:04;;;;;;;3.22;0.47;;;;;;;30.87;36.64;100855.13;7394076;19;20451;-63
2023/02/19 12:06:44;;;;;;;3.78;0.98;;;;;;;31.26;34.76;100854.03;7393678;19;20019;-63
2023/02/19 12:09:16;;;;;;;2.10;1.27;;;;;;;32.62;32.20;100854.63;7393847;19;20085;-63
2023/02/19 12:12:16;;;;;;;0.57;0.40;;;;;;;30.39;33.94;100848.19;7394073;19;20018;-64
2023/02/19 12:14:48;;;;;;;1.23;0.47;;;;;;;32.54;31.08;100828.06;7393346;19;20019;-64
2023/02/19 12:17:52;;;;;;;0.95;0.43;;;;;;;24.60;36.79;100822.50;7393847;19;20007;-63
2023/02/19 12:20:41;;;;;;;1.73;0.93;;;;;;;23.48;44.32;100834.41;7391887;19;20010;-64
2023/02/19 12:23:33;;;;;;;7.80;1.98;;;;;;;28.86;37.24;100817.53;7397594;19;20362;-64
2023/02/19 12:26:23;;;;;;;3.40;1.20;;;;;;;31.18;33.00;100824.59;7392246;19;21071;-64